sensor_id;sensor_type;location;lat;lon;timestamp;pressure;altitude;pressure_sealevel;temperature;humidity
74310;BME280;62722;51.142;17.052;2023-02-13T00:01:09;102453.41;;;5.43;94.59
74310;BME280;62722;51.142;17.052;2023-02-13T00:03:36;102454.25;;;5.45;94.83
74310;BME280;62722;51.142;17.052;2023-02-13T00:06:04;102449.84;;;5.47;94.53
74310;BME280;62722;51.142;17.052;2023-02-13T00:08:31;102453.34;;;5.48;94.58
74310;BME280;62722;51.142;17.052;2023-02-13T00:10:59;102448.97;;;5.48;94.09
74310;BME280;62722;51.142;17.052;2023-02-13T00:13:27;102446.34;;;5.48;94.15
74310;BME280;62722;51.142;17.052;2023-02-13T00:15:55;102447.25;;;5.46;94.24
74310;BME280;62722;51.142;17.052;2023-02-13T00:18:22;102440.31;;;5.42;94.52
74310;BME280;62722;51.142;17.052;2023-02-13T00:20:57;102442.06;;;5.39;94.36
74310;BME280;62722;51.142;17.052;2023-02-13T00:23:24;102440.31;;;5.40;94.31
74310;BME280;62722;51.142;17.052;2023-02-13T00:25:51;102438.59;;;5.39;94.09
74310;BME280;62722;51.142;17.052;2023-02-13T00:28:20;102435.13;;;5.37;93.88
74310;BME280;62722;51.142;17.052;2023-02-13T00:30:47;102439.47;;;5.38;94.04
74310;BME280;62722;51.142;17.052;2023-02-13T00:33:14;102437.78;;;5.35;94.27
74310;BME280;62722;51.142;17.052;2023-02-13T00:35:41;102436.00;;;5.37;94.20
74310;BME280;62722;51.142;17.052;2023-02-13T00:38:09;102446.47;;;5.36;93.88
74310;BME280;62722;51.142;17.052;2023-02-13T00:40:36;102438.59;;;5.39;93.54
74310;BME280;62722;51.142;17.052;2023-02-13T00:43:03;102448.22;;;5.37;93.33
74310;BME280;62722;51.142;17.052;2023-02-13T00:45:31;102443.84;;;5.37;93.42
74310;BME280;62722;51.142;17.052;2023-02-13T00:47:59;102447.34;;;5.38;93.70
74310;BME280;62722;51.142;17.052;2023-02-13T00:50:26;102437.75;;;5.37;93.63
74310;BME280;62722;51.142;17.052;2023-02-13T00:52:53;102446.47;;;5.36;93.61
74310;BME280;62722;51.142;17.052;2023-02-13T00:55:20;102445.63;;;5.35;93.62
74310;BME280;62722;51.142;17.052;2023-02-13T00:57:47;102450.00;;;5.35;93.57
74310;BME280;62722;51.142;17.052;2023-02-13T01:00:15;102446.47;;;5.36;93.19
74310;BME280;62722;51.142;17.052;2023-02-13T01:02:44;102438.59;;;5.36;93.12
74310;BME280;62722;51.142;17.052;2023-02-13T01:05:12;102438.66;;;5.33;93.18
74310;BME280;62722;51.142;17.052;2023-02-13T01:07:39;102448.28;;;5.31;93.47
74310;BME280;62722;51.142;17.052;2023-02-13T01:10:06;102444.78;;;5.29;93.55
74310;BME280;62722;51.142;17.052;2023-02-13T01:12:34;102446.53;;;5.28;93.65
74310;BME280;62722;51.142;17.052;2023-02-13T01:15:02;102440.44;;;5.29;93.51
74310;BME280;62722;51.142;17.052;2023-02-13T01:17:29;102437.84;;;5.28;93.57
74310;BME280;62722;51.142;17.052;2023-02-13T01:19:58;102440.47;;;5.28;93.21
74310;BME280;62722;51.142;17.052;2023-02-13T01:22:25;102439.59;;;5.27;93.70
74310;BME280;62722;51.142;17.052;2023-02-13T01:24:52;102436.97;;;5.27;93.12
74310;BME280;62722;51.142;17.052;2023-02-13T01:27:19;102437.84;;;5.28;93.00
74310;BME280;62722;51.142;17.052;2023-02-13T01:29:47;102430.81;;;5.30;92.37
74310;BME280;62722;51.142;17.052;2023-02-13T01:32:14;102422.09;;;5.31;92.73
74310;BME280;62722;51.142;17.052;2023-02-13T01:34:41;102432.56;;;5.31;92.85
74310;BME280;62722;51.142;17.052;2023-02-13T01:37:10;102420.34;;;5.30;92.51
74310;BME280;62722;51.142;17.052;2023-02-13T01:39:37;102423.84;;;5.32;91.85
74310;BME280;62722;51.142;17.052;2023-02-13T01:42:08;102430.78;;;5.33;92.45
74310;BME280;62722;51.142;17.052;2023-02-13T01:44:47;102429.91;;;5.34;92.19
74310;BME280;62722;51.142;17.052;2023-02-13T01:47:19;102431.66;;;5.35;92.22
74310;BME280;62722;51.142;17.052;2023-02-13T01:49:49;102422.06;;;5.34;92.42
74310;BME280;62722;51.142;17.052;2023-02-13T01:52:20;102422.94;;;5.33;92.65
74310;BME280;62722;51.142;17.052;2023-02-13T01:54:47;102417.69;;;5.33;92.75
74310;BME280;62722;51.142;17.052;2023-02-13T01:57:17;102421.22;;;5.32;92.34
74310;BME280;62722;51.142;17.052;2023-02-13T01:59:49;102416.88;;;5.31;92.65
74310;BME280;62722;51.142;17.052;2023-02-13T02:02:19;102408.16;;;5.27;92.54
74310;BME280;62722;51.142;17.052;2023-02-13T02:04:47;102411.63;;;5.29;92.45
74310;BME280;62722;51.142;17.052;2023-02-13T02:07:18;102405.53;;;5.29;92.59
74310;BME280;62722;51.142;17.052;2023-02-13T02:09:47;102405.53;;;5.29;92.91
74310;BME280;62722;51.142;17.052;2023-02-13T02:12:21;102408.13;;;5.29;92.63
74310;BME280;62722;51.142;17.052;2023-02-13T02:14:51;102416.00;;;5.30;92.59
74310;BME280;62722;51.142;17.052;2023-02-13T02:17:20;102401.16;;;5.31;92.31
74310;BME280;62722;51.142;17.052;2023-02-13T02:19:58;102397.66;;;5.32;92.31
74310;BME280;62722;51.142;17.052;2023-02-13T02:22:48;102409.84;;;5.33;92.84
74310;BME280;62722;51.142;17.052;2023-02-13T02:28:58;102408.13;;;5.30;92.89
74310;BME280;62722;51.142;17.052;2023-02-13T02:34:44;102401.19;;;5.28;92.98
74310;BME280;62722;51.142;17.052;2023-02-13T02:37:24;102404.66;;;5.28;93.25
74310;BME280;62722;51.142;17.052;2023-02-13T02:40:04;102400.31;;;5.27;93.32
74310;BME280;62722;51.142;17.052;2023-02-13T02:42:42;102394.22;;;5.27;93.31
74310;BME280;62722;51.142;17.052;2023-02-13T02:45:21;102389.00;;;5.24;93.47
74310;BME280;62722;51.142;17.052;2023-02-13T02:47:55;102395.13;;;5.21;93.87
74310;BME280;62722;51.142;17.052;2023-02-13T02:50:45;102402.06;;;5.25;93.99
74310;BME280;62722;51.142;17.052;2023-02-13T02:53:25;102399.44;;;5.27;93.50
74310;BME280;62722;51.142;17.052;2023-02-13T02:56:00;102401.19;;;5.28;93.82
74310;BME280;62722;51.142;17.052;2023-02-13T02:58:36;102398.56;;;5.25;93.80
74310;BME280;62722;51.142;17.052;2023-02-13T03:01:24;102402.94;;;5.26;93.90
74310;BME280;62722;51.142;17.052;2023-02-13T03:04:18;102409.91;;;5.25;94.17
74310;BME280;62722;51.142;17.052;2023-02-13T03:07:06;102409.91;;;5.25;94.55
74310;BME280;62722;51.142;17.052;2023-02-13T03:09:37;102409.03;;;5.25;94.46
74310;BME280;62722;51.142;17.052;2023-02-13T03:12:27;102404.72;;;5.24;94.62
74310;BME280;62722;51.142;17.052;2023-02-13T03:15:13;102402.97;;;5.21;95.23
74310;BME280;62722;51.142;17.052;2023-02-13T03:17:41;102402.13;;;5.19;95.28
74310;BME280;62722;51.142;17.052;2023-02-13T03:20:34;102390.75;;;5.22;95.24
74310;BME280;62722;51.142;17.052;2023-02-13T03:23:32;102396.03;;;5.20;95.55
74310;BME280;62722;51.142;17.052;2023-02-13T03:26:06;102393.44;;;5.17;95.89
74310;BME280;62722;51.142;17.052;2023-02-13T03:28:44;102397.81;;;5.17;96.02
74310;BME280;62722;51.142;17.052;2023-02-13T03:31:34;102409.13;;;5.19;96.13
74310;BME280;62722;51.142;17.052;2023-02-13T03:34:04;102395.16;;;5.20;96.34
74310;BME280;62722;51.142;17.052;2023-02-13T03:36:42;102404.72;;;5.22;95.79
74310;BME280;62722;51.142;17.052;2023-02-13T03:39:35;102406.47;;;5.22;96.06
74310;BME280;62722;51.142;17.052;2023-02-13T03:42:09;102397.72;;;5.23;96.15
74310;BME280;62722;51.142;17.052;2023-02-13T03:44:40;102403.81;;;5.25;96.63
74310;BME280;62722;51.142;17.052;2023-02-13T03:47:09;102408.16;;;5.26;96.66
74310;BME280;62722;51.142;17.052;2023-02-13T03:49:40;102407.28;;;5.27;96.67
74310;BME280;62722;51.142;17.052;2023-02-13T03:52:30;102407.28;;;5.27;96.82
74310;BME280;62722;51.142;17.052;2023-02-13T03:55:01;102404.69;;;5.27;96.88
74310;BME280;62722;51.142;17.052;2023-02-13T03:57:49;102408.16;;;5.26;96.82
74310;BME280;62722;51.142;17.052;2023-02-13T04:00:39;102415.16;;;5.25;97.75
74310;BME280;62722;51.142;17.052;2023-02-13T04:03:12;102403.00;;;5.20;97.84
74310;BME280;62722;51.142;17.052;2023-02-13T04:05:43;102416.97;;;5.20;97.78
74310;BME280;62722;51.142;17.052;2023-02-13T04:08:14;102402.09;;;5.22;97.99
74310;BME280;62722;51.142;17.052;2023-02-13T04:10:48;102399.50;;;5.18;98.08
74310;BME280;62722;51.142;17.052;2023-02-13T04:13:19;102399.50;;;5.18;98.48
74310;BME280;62722;51.142;17.052;2023-02-13T04:15:51;102401.25;;;5.19;98.45
74310;BME280;62722;51.142;17.052;2023-02-13T04:18:21;102398.66;;;5.19;98.34
74310;BME280;62722;51.142;17.052;2023-02-13T04:20:50;102398.63;;;5.20;98.36
74310;BME280;62722;51.142;17.052;2023-02-13T04:23:19;102394.28;;;5.21;98.78
74310;BME280;62722;51.142;17.052;2023-02-13T04:25:49;102394.28;;;5.21;98.84
74310;BME280;62722;51.142;17.052;2023-02-13T04:28:16;102389.03;;;5.18;99.25
74310;BME280;62722;51.142;17.052;2023-02-13T04:30:44;102401.28;;;5.16;99.25
74310;BME280;62722;51.142;17.052;2023-02-13T04:33:11;102385.59;;;5.14;99.49
74310;BME280;62722;51.142;17.052;2023-02-13T04:35:38;102388.25;;;5.13;99.49
74310;BME280;62722;51.142;17.052;2023-02-13T04:38:05;102396.13;;;5.10;99.88
74310;BME280;62722;51.142;17.052;2023-02-13T04:40:34;102392.66;;;5.08;99.63
74310;BME280;62722;51.142;17.052;2023-02-13T04:43:01;102396.13;;;5.07;100.00
74310;BME280;62722;51.142;17.052;2023-02-13T04:45:29;102399.66;;;5.04;100.00
74310;BME280;62722;51.142;17.052;2023-02-13T04:47:57;102397.91;;;5.03;100.00
74310;BME280;62722;51.142;17.052;2023-02-13T04:50:25;102395.31;;;5.02;100.00
74310;BME280;62722;51.142;17.052;2023-02-13T04:52:52;102384.84;;;5.00;100.00
74310;BME280;62722;51.142;17.052;2023-02-13T04:55:21;102390.97;;;5.01;100.00
74310;BME280;62722;51.142;17.052;2023-02-13T04:57:50;102384.81;;;5.03;100.00
74310;BME280;62722;51.142;17.052;2023-02-13T05:00:19;102385.72;;;5.01;100.00
74310;BME280;62722;51.142;17.052;2023-02-13T05:02:46;102380.50;;;5.02;100.00
74310;BME280;62722;51.142;17.052;2023-02-13T05:05:14;102370.88;;;5.04;100.00
74310;BME280;62722;51.142;17.052;2023-02-13T05:07:41;102373.47;;;5.06;100.00
74310;BME280;62722;51.142;17.052;2023-02-13T05:10:09;102375.22;;;5.04;99.93
74310;BME280;62722;51.142;17.052;2023-02-13T05:12:36;102370.88;;;5.03;100.00
74310;BME280;62722;51.142;17.052;2023-02-13T05:15:06;102377.88;;;5.02;100.00
74310;BME280;62722;51.142;17.052;2023-02-13T05:17:33;102370.00;;;5.04;100.00
74310;BME280;62722;51.142;17.052;2023-02-13T05:20:00;102378.72;;;5.06;100.00
74310;BME280;62722;51.142;17.052;2023-02-13T05:22:27;102377.81;;;5.07;100.00
74310;BME280;62722;51.142;17.052;2023-02-13T05:25:12;102374.31;;;5.08;100.00
74310;BME280;62722;51.142;17.052;2023-02-13T05:27:39;102376.03;;;5.10;100.00
74310;BME280;62722;51.142;17.052;2023-02-13T05:30:08;102388.25;;;5.11;100.00
74310;BME280;62722;51.142;17.052;2023-02-13T05:32:35;102385.63;;;5.11;100.00
74310;BME280;62722;51.142;17.052;2023-02-13T05:35:03;102380.38;;;5.11;100.00
74310;BME280;62722;51.142;17.052;2023-02-13T05:37:30;102376.91;;;5.11;100.00
74310;BME280;62722;51.142;17.052;2023-02-13T05:39:57;102375.19;;;5.10;100.00
74310;BME280;62722;51.142;17.052;2023-02-13T05:42:24;102383.03;;;5.08;100.00
74310;BME280;62722;51.142;17.052;2023-02-13T05:44:51;102380.44;;;5.10;100.00
74310;BME280;62722;51.142;17.052;2023-02-13T05:47:20;102388.28;;;5.10;100.00
74310;BME280;62722;51.142;17.052;2023-02-13T05:49:47;102385.66;;;5.10;100.00
74310;BME280;62722;51.142;17.052;2023-02-13T05:52:14;102388.25;;;5.11;100.00
74310;BME280;62722;51.142;17.052;2023-02-13T05:54:41;102390.91;;;5.10;100.00
74310;BME280;62722;51.142;17.052;2023-02-13T05:57:09;102388.28;;;5.08;100.00
74310;BME280;62722;51.142;17.052;2023-02-13T05:59:36;102390.03;;;5.08;100.00
74310;BME280;62722;51.142;17.052;2023-02-13T06:02:03;102396.13;;;5.10;100.00
74310;BME280;62722;51.142;17.052;2023-02-13T06:04:32;102398.72;;;5.13;100.00
74310;BME280;62722;51.142;17.052;2023-02-13T06:06:59;102396.97;;;5.13;100.00
74310;BME280;62722;51.142;17.052;2023-02-13T06:09:26;102391.69;;;5.15;100.00
74310;BME280;62722;51.142;17.052;2023-02-13T06:11:53;102385.59;;;5.14;100.00
74310;BME280;62722;51.142;17.052;2023-02-13T06:14:21;102396.09;;;5.13;100.00
74310;BME280;62722;51.142;17.052;2023-02-13T06:16:48;102408.28;;;5.14;100.00
74310;BME280;62722;51.142;17.052;2023-02-13T06:19:15;102398.69;;;5.16;100.00
74310;BME280;62722;51.142;17.052;2023-02-13T06:21:43;102397.81;;;5.17;100.00
74310;BME280;62722;51.142;17.052;2023-02-13T06:24:11;102401.25;;;5.19;100.00
74310;BME280;62722;51.142;17.052;2023-02-13T06:26:38;102402.13;;;5.21;100.00
74310;BME280;62722;51.142;17.052;2023-02-13T06:29:06;102401.25;;;5.19;100.00
74310;BME280;62722;51.142;17.052;2023-02-13T06:31:33;102401.22;;;5.22;100.00
74310;BME280;62722;51.142;17.052;2023-02-13T06:34:01;102399.50;;;5.19;100.00
74310;BME280;62722;51.142;17.052;2023-02-13T06:36:28;102413.44;;;5.23;100.00
74310;BME280;62722;51.142;17.052;2023-02-13T06:38:57;102416.06;;;5.24;100.00
74310;BME280;62722;51.142;17.052;2023-02-13T06:41:24;102418.69;;;5.24;100.00
74310;BME280;62722;51.142;17.052;2023-02-13T06:43:51;102419.50;;;5.26;100.00
74310;BME280;62722;51.142;17.052;2023-02-13T06:46:18;102410.78;;;5.26;100.00
74310;BME280;62722;51.142;17.052;2023-02-13T06:48:45;102423.88;;;5.27;100.00
74310;BME280;62722;51.142;17.052;2023-02-13T06:51:12;102411.66;;;5.26;100.00
74310;BME280;62722;51.142;17.052;2023-02-13T06:53:40;102415.16;;;5.27;100.00
74310;BME280;62722;51.142;17.052;2023-02-13T06:56:09;102415.16;;;5.27;100.00
74310;BME280;62722;51.142;17.052;2023-02-13T06:58:36;102412.50;;;5.28;100.00
74310;BME280;62722;51.142;17.052;2023-02-13T07:01:04;102411.66;;;5.28;100.00
74310;BME280;62722;51.142;17.052;2023-02-13T07:03:32;102416.00;;;5.32;100.00
74310;BME280;62722;51.142;17.052;2023-02-13T07:05:59;102418.59;;;5.32;100.00
74310;BME280;62722;51.142;17.052;2023-02-13T07:08:26;102425.56;;;5.33;100.00
74310;BME280;62722;51.142;17.052;2023-02-13T07:10:54;102419.44;;;5.34;100.00
74310;BME280;62722;51.142;17.052;2023-02-13T07:13:22;102406.34;;;5.34;100.00
74310;BME280;62722;51.142;17.052;2023-02-13T07:15:49;102411.56;;;5.37;100.00
74310;BME280;62722;51.142;17.052;2023-02-13T07:18:17;102412.41;;;5.39;100.00
74310;BME280;62722;51.142;17.052;2023-02-13T07:20:44;102403.69;;;5.38;100.00
74310;BME280;62722;51.142;17.052;2023-02-13T07:23:11;102410.66;;;5.41;100.00
74310;BME280;62722;51.142;17.052;2023-02-13T07:25:38;102409.78;;;5.42;100.00
74310;BME280;62722;51.142;17.052;2023-02-13T07:28:06;102408.03;;;5.43;100.00
74310;BME280;62722;51.142;17.052;2023-02-13T07:30:34;102402.75;;;5.44;100.00
74310;BME280;62722;51.142;17.052;2023-02-13T07:33:02;102413.22;;;5.44;100.00
74310;BME280;62722;51.142;17.052;2023-02-13T07:35:31;102407.97;;;5.46;100.00
74310;BME280;62722;51.142;17.052;2023-02-13T07:37:58;102402.75;;;5.46;100.00
74310;BME280;62722;51.142;17.052;2023-02-13T07:40:26;102395.75;;;5.45;100.00
74310;BME280;62722;51.142;17.052;2023-02-13T07:42:53;102406.25;;;5.46;100.00
74310;BME280;62722;51.142;17.052;2023-02-13T07:45:20;102407.94;;;5.47;100.00
74310;BME280;62722;51.142;17.052;2023-02-13T07:47:49;102408.81;;;5.48;100.00
74310;BME280;62722;51.142;17.052;2023-02-13T07:50:16;102410.56;;;5.50;100.00
74310;BME280;62722;51.142;17.052;2023-02-13T07:52:43;102407.91;;;5.53;100.00
74310;BME280;62722;51.142;17.052;2023-02-13T07:55:11;102405.25;;;5.56;100.00
74310;BME280;62722;51.142;17.052;2023-02-13T07:57:38;102410.44;;;5.59;100.00
74310;BME280;62722;51.142;17.052;2023-02-13T08:00:06;102410.44;;;5.61;100.00
74310;BME280;62722;51.142;17.052;2023-02-13T08:02:33;102413.94;;;5.60;100.00
74310;BME280;62722;51.142;17.052;2023-02-13T08:05:02;102406.94;;;5.60;100.00
74310;BME280;62722;51.142;17.052;2023-02-13T08:07:29;102404.34;;;5.60;100.00
74310;BME280;62722;51.142;17.052;2023-02-13T08:09:57;102409.53;;;5.65;100.00
74310;BME280;62722;51.142;17.052;2023-02-13T08:12:41;102412.09;;;5.66;100.00
74310;BME280;62722;51.142;17.052;2023-02-13T08:15:10;102419.94;;;5.69;100.00
74310;BME280;62722;51.142;17.052;2023-02-13T08:17:38;102412.06;;;5.69;100.00
74310;BME280;62722;51.142;17.052;2023-02-13T08:20:07;102419.00;;;5.73;100.00
74310;BME280;62722;51.142;17.052;2023-02-13T08:22:35;102410.28;;;5.76;100.00
74310;BME280;62722;51.142;17.052;2023-02-13T08:25:03;102411.16;;;5.76;100.00
74310;BME280;62722;51.142;17.052;2023-02-13T08:27:31;102411.09;;;5.79;100.00
74310;BME280;62722;51.142;17.052;2023-02-13T08:29:58;102418.91;;;5.82;100.00
74310;BME280;62722;51.142;17.052;2023-02-13T08:32:26;102409.28;;;5.84;100.00
74310;BME280;62722;51.142;17.052;2023-02-13T08:34:53;102415.38;;;5.85;100.00
74310;BME280;62722;51.142;17.052;2023-02-13T08:37:23;102414.50;;;5.84;100.00
74310;BME280;62722;51.142;17.052;2023-02-13T08:39:50;102414.50;;;5.84;100.00
74310;BME280;62722;51.142;17.052;2023-02-13T08:42:17;102409.25;;;5.87;100.00
74310;BME280;62722;51.142;17.052;2023-02-13T08:44:44;102405.75;;;5.90;100.00
74310;BME280;62722;51.142;17.052;2023-02-13T08:47:11;102417.06;;;5.92;100.00
74310;BME280;62722;51.142;17.052;2023-02-13T08:49:38;102418.81;;;5.95;100.00
74310;BME280;62722;51.142;17.052;2023-02-13T08:52:06;102412.63;;;5.99;100.00
74310;BME280;62722;51.142;17.052;2023-02-13T08:54:34;102411.75;;;6.00;100.00
74310;BME280;62722;51.142;17.052;2023-02-13T08:57:02;102410.00;;;5.99;100.00
74310;BME280;62722;51.142;17.052;2023-02-13T08:59:29;102408.25;;;6.02;100.00
74310;BME280;62722;51.142;17.052;2023-02-13T09:01:56;102414.31;;;6.04;100.00
74310;BME280;62722;51.142;17.052;2023-02-13T09:04:23;102411.66;;;6.07;100.00
74310;BME280;62722;51.142;17.052;2023-02-13T09:06:51;102414.25;;;6.09;100.00
74310;BME280;62722;51.142;17.052;2023-02-13T09:09:18;102417.66;;;6.14;100.00
74310;BME280;62722;51.142;17.052;2023-02-13T09:11:47;102422.91;;;6.14;100.00
74310;BME280;62722;51.142;17.052;2023-02-13T09:14:15;102428.19;;;6.12;100.00
74310;BME280;62722;51.142;17.052;2023-02-13T09:16:42;102443.09;;;6.09;100.00
74310;BME280;62722;51.142;17.052;2023-02-13T09:19:09;102440.47;;;6.09;100.00
74310;BME280;62722;51.142;17.052;2023-02-13T09:21:37;102443.06;;;6.10;100.00
74310;BME280;62722;51.142;17.052;2023-02-13T09:24:06;102444.94;;;6.01;99.15
74310;BME280;62722;51.142;17.052;2023-02-13T09:26:33;102455.50;;;5.93;98.42
74310;BME280;62722;51.142;17.052;2023-02-13T09:29:02;102451.19;;;5.87;97.75
74310;BME280;62722;51.142;17.052;2023-02-13T09:31:29;102473.06;;;5.80;96.33
74310;BME280;62722;51.142;17.052;2023-02-13T09:33:56;102465.34;;;5.71;95.75
74310;BME280;62722;51.142;17.052;2023-02-13T09:36:23;102453.09;;;5.70;95.92
74310;BME280;62722;51.142;17.052;2023-02-13T09:38:52;102460.94;;;5.75;96.38
74310;BME280;62722;51.142;17.052;2023-02-13T09:41:22;102462.63;;;5.77;95.25
74310;BME280;62722;51.142;17.052;2023-02-13T09:43:51;102466.13;;;5.78;95.44
74310;BME280;62722;51.142;17.052;2023-02-13T09:46:23;102466.91;;;5.84;95.20
74310;BME280;62722;51.142;17.052;2023-02-13T09:48:55;102472.16;;;5.87;95.02
74310;BME280;62722;51.142;17.052;2023-02-13T09:51:26;102466.91;;;5.91;95.39
74310;BME280;62722;51.142;17.052;2023-02-13T09:53:55;102466.00;;;5.93;95.19
74310;BME280;62722;51.142;17.052;2023-02-13T09:56:39;102466.81;;;5.97;95.31
74310;BME280;62722;51.142;17.052;2023-02-13T09:59:33;102478.94;;;6.07;96.16
74310;BME280;62722;51.142;17.052;2023-02-13T10:02:21;102481.56;;;6.07;94.96
74310;BME280;62722;51.142;17.052;2023-02-13T10:04:58;102477.22;;;6.04;94.22
74310;BME280;62722;51.142;17.052;2023-02-13T10:07:37;102473.66;;;6.10;94.48
74310;BME280;62722;51.142;17.052;2023-02-13T10:10:15;102468.41;;;6.13;93.36
74310;BME280;62722;51.142;17.052;2023-02-13T10:13:01;102469.22;;;6.16;94.53
74310;BME280;62722;51.142;17.052;2023-02-13T10:15:37;102466.56;;;6.18;93.83
74310;BME280;62722;51.142;17.052;2023-02-13T10:18:11;102460.41;;;6.22;93.23
74310;BME280;62722;51.142;17.052;2023-02-13T10:20:43;102457.69;;;6.29;93.33
74310;BME280;62722;51.142;17.052;2023-02-13T10:23:18;102458.56;;;6.28;92.98
74310;BME280;62722;51.142;17.052;2023-02-13T10:25:52;102450.66;;;6.31;91.54
74310;BME280;62722;51.142;17.052;2023-02-13T10:28:28;102461.13;;;6.33;89.54
74310;BME280;62722;51.142;17.052;2023-02-13T10:31:02;102457.56;;;6.37;89.60
74310;BME280;62722;51.142;17.052;2023-02-13T10:33:34;102453.28;;;6.31;88.07
74310;BME280;62722;51.142;17.052;2023-02-13T10:36:10;102455.00;;;6.35;87.63
74310;BME280;62722;51.142;17.052;2023-02-13T10:38:43;102449.63;;;6.43;87.45
74310;BME280;62722;51.142;17.052;2023-02-13T10:41:22;102447.75;;;6.51;85.95
74310;BME280;62722;51.142;17.052;2023-02-13T10:44:12;102442.53;;;6.50;85.95
74310;BME280;62722;51.142;17.052;2023-02-13T10:46:50;102442.44;;;6.56;87.45
74310;BME280;62722;51.142;17.052;2023-02-13T10:49:34;102445.09;;;6.54;86.37
74310;BME280;62722;51.142;17.052;2023-02-13T10:52:17;102445.91;;;6.58;86.65
74310;BME280;62722;51.142;17.052;2023-02-13T10:57:56;102439.75;;;6.60;86.27
74310;BME280;62722;51.142;17.052;2023-02-13T11:00:30;102439.72;;;6.62;85.89
74310;BME280;62722;51.142;17.052;2023-02-13T11:03:00;102440.75;;;6.53;85.96
74310;BME280;62722;51.142;17.052;2023-02-13T11:05:32;102432.00;;;6.53;86.54
74310;BME280;62722;51.142;17.052;2023-02-13T11:07:59;102438.13;;;6.53;86.58
74310;BME280;62722;51.142;17.052;2023-02-13T11:10:28;102433.88;;;6.45;85.81
74310;BME280;62722;51.142;17.052;2023-02-13T11:12:55;102435.56;;;6.49;85.89
74310;BME280;62722;51.142;17.052;2023-02-13T11:15:25;102428.56;;;6.48;86.65
74310;BME280;62722;51.142;17.052;2023-02-13T11:17:53;102415.44;;;6.49;86.69
74310;BME280;62722;51.142;17.052;2023-02-13T11:20:29;102413.59;;;6.57;86.56
74310;BME280;62722;51.142;17.052;2023-02-13T11:26:11;102417.03;;;6.59;85.48
74310;BME280;62722;51.142;17.052;2023-02-13T11:28:47;102417.09;;;6.56;86.90
74310;BME280;62722;51.142;17.052;2023-02-13T11:31:23;102410.88;;;6.62;86.71
74310;BME280;62722;51.142;17.052;2023-02-13T11:33:51;102410.84;;;6.65;85.63
74310;BME280;62722;51.142;17.052;2023-02-13T11:36:24;102403.91;;;6.59;86.10
74310;BME280;62722;51.142;17.052;2023-02-13T11:39:03;102403.03;;;6.60;85.62
74310;BME280;62722;51.142;17.052;2023-02-13T11:41:36;102408.41;;;6.51;84.65
74310;BME280;62722;51.142;17.052;2023-02-13T11:44:14;102404.88;;;6.54;84.76
74310;BME280;62722;51.142;17.052;2023-02-13T11:46:47;102398.78;;;6.53;85.24
74310;BME280;62722;51.142;17.052;2023-02-13T11:49:19;102401.28;;;6.59;84.76
74310;BME280;62722;51.142;17.052;2023-02-13T11:51:48;102399.53;;;6.60;83.36
74310;BME280;62722;51.142;17.052;2023-02-13T11:54:32;102400.41;;;6.60;83.26
74310;BME280;62722;51.142;17.052;2023-02-13T11:57:17;102404.72;;;6.63;84.39
74310;BME280;62722;51.142;17.052;2023-02-13T11:59:46;102409.94;;;6.66;83.17
74310;BME280;62722;51.142;17.052;2023-02-13T12:02:17;102408.28;;;6.60;80.77
74310;BME280;62722;51.142;17.052;2023-02-13T12:04:45;102414.50;;;6.53;80.72
74310;BME280;62722;51.142;17.052;2023-02-13T12:07:16;102422.38;;;6.53;81.26
74310;BME280;62722;51.142;17.052;2023-02-13T12:09:49;102412.78;;;6.51;80.81
74310;BME280;62722;51.142;17.052;2023-02-13T12:12:20;102414.59;;;6.47;80.72
74310;BME280;62722;51.142;17.052;2023-02-13T12:14:49;102403.22;;;6.48;79.64
74310;BME280;62722;51.142;17.052;2023-02-13T12:17:20;102414.69;;;6.43;79.91
74310;BME280;62722;51.142;17.052;2023-02-13T12:19:49;102412.88;;;6.45;81.16
74310;BME280;62722;51.142;17.052;2023-02-13T12:22:31;102410.25;;;6.46;81.31
74310;BME280;62722;51.142;17.052;2023-02-13T12:25:26;102399.72;;;6.49;80.38
74310;BME280;62722;51.142;17.052;2023-02-13T12:28:09;102397.03;;;6.52;79.60
74310;BME280;62722;51.142;17.052;2023-02-13T12:30:58;102399.72;;;6.49;79.66
74310;BME280;62722;51.142;17.052;2023-02-13T12:34:06;102400.59;;;6.48;79.80
74310;BME280;62722;51.142;17.052;2023-02-13T12:36:48;102392.75;;;6.47;78.89
74310;BME280;62722;51.142;17.052;2023-02-13T12:39:25;102397.13;;;6.45;78.96
74310;BME280;62722;51.142;17.052;2023-02-13T12:42:07;102384.09;;;6.40;77.69
74310;BME280;62722;51.142;17.052;2023-02-13T12:44:52;102384.97;;;6.41;77.82
74310;BME280;62722;51.142;17.052;2023-02-13T12:47:24;102385.81;;;6.41;77.86
74310;BME280;62722;51.142;17.052;2023-02-13T12:50:28;102391.91;;;6.45;78.44
74310;BME280;62722;51.142;17.052;2023-02-13T12:53:19;102384.03;;;6.45;77.58
74310;BME280;62722;51.142;17.052;2023-02-13T12:55:59;102394.50;;;6.46;76.05
74310;BME280;62722;51.142;17.052;2023-02-13T12:58:50;102383.16;;;6.46;75.53
74310;BME280;62722;51.142;17.052;2023-02-13T13:01:38;102386.66;;;6.43;76.00
74310;BME280;62722;51.142;17.052;2023-02-13T13:04:16;102389.28;;;6.43;76.07
74310;BME280;62722;51.142;17.052;2023-02-13T13:06:56;102377.03;;;6.44;76.95
74310;BME280;62722;51.142;17.052;2023-02-13T13:09:38;102376.09;;;6.48;77.11
74310;BME280;62722;51.142;17.052;2023-02-13T13:12:23;102371.72;;;6.48;77.27
74310;BME280;62722;51.142;17.052;2023-02-13T13:14:59;102375.19;;;6.52;76.66
74310;BME280;62722;51.142;17.052;2023-02-13T13:17:39;102374.31;;;6.51;77.23
74310;BME280;62722;51.142;17.052;2023-02-13T13:20:29;102383.91;;;6.52;77.71
74310;BME280;62722;51.142;17.052;2023-02-13T13:23:04;102382.16;;;6.51;76.60